Time;durP1;ratioP1;P1;durP2;ratioP2;P2;SDS_P1;SDS_P2;PMS_P1;PMS_P2;Temp;Humidity;BMP_temperature;BMP_pressure;BME280_temperature;BME280_humidity;BME280_pressure;Samples;Min_cycle;Max_cycle;Signal;HPM_P1;HPM_P2
2023/12/29 00:00:31;;;;;;;1999.90;999.90;;;;;;;10.91;90.32;100655.97;10458304;28;20408;-68
2023/12/29 00:05:34;;;;;;;1999.90;999.90;;;;;;;10.90;90.06;100651.69;10460459;28;20060;-69
2023/12/29 00:10:36;;;;;;;1999.90;999.90;;;;;;;10.88;89.77;100638.69;10460114;28;20084;-68
2023/12/29 00:15:38;;;;;;;1999.90;999.90;;;;;;;10.97;89.76;100645.13;10460131;28;20080;-68
2023/12/29 00:20:41;;;;;;;1999.90;999.90;;;;;;;10.55;100.00;100639.78;10460063;28;20120;-69
2023/12/29 00:25:43;;;;;;;1999.90;999.90;;;;;;;10.63;100.00;100639.31;10458524;28;20519;-68
2023/12/29 00:30:46;;;;;;;1999.90;999.90;;;;;;;10.64;98.88;100641.03;10459408;28;20378;-68
2023/12/29 00:36:02;;;;;;;1999.90;999.90;;;;;;;10.66;96.90;100631.28;10459351;28;20098;-68
2023/12/29 00:41:05;;;;;;;1999.90;999.90;;;;;;;10.73;95.20;100608.19;10459467;28;20095;-69
2023/12/29 00:46:08;;;;;;;1999.90;999.90;;;;;;;10.76;94.25;100626.34;10458746;28;20563;-68
2023/12/29 00:51:11;;;;;;;1999.90;999.90;;;;;;;10.70;96.10;100614.44;10458590;28;20052;-69
2023/12/29 00:56:13;;;;;;;1999.90;999.90;;;;;;;10.66;98.57;100615.59;10458394;28;20560;-69
2023/12/29 01:01:16;;;;;;;1999.90;999.90;;;;;;;10.31;100.00;100608.03;10458316;28;20053;-69
2023/12/29 01:06:18;;;;;;;1999.90;999.90;;;;;;;10.18;100.00;100613.13;10457966;28;20451;-68
2023/12/29 01:11:21;;;;;;;1999.90;999.90;;;;;;;9.97;100.00;100604.78;10457706;28;20049;-67
2023/12/29 01:16:23;;;;;;;1999.90;999.90;;;;;;;10.01;100.00;100619.34;10457699;28;20064;-68
2023/12/29 01:21:25;;;;;;;1999.90;999.90;;;;;;;9.96;100.00;100594.41;10456593;28;20048;-68
2023/12/29 01:26:28;;;;;;;1999.90;999.90;;;;;;;10.00;100.00;100581.06;10456116;28;20400;-68
2023/12/29 01:31:31;;;;;;;1999.90;999.90;;;;;;;10.10;100.00;100583.97;10457790;28;20128;-67
2023/12/29 01:36:33;;;;;;;1999.90;999.90;;;;;;;10.03;100.00;100598.34;10456461;28;20087;-68
2023/12/29 01:41:36;;;;;;;1999.90;999.90;;;;;;;9.83;100.00;100599.50;10456875;28;20059;-68
2023/12/29 01:46:38;;;;;;;1999.90;999.90;;;;;;;9.92;100.00;100608.56;10456699;28;20137;-68
2023/12/29 01:51:41;;;;;;;1999.90;999.90;;;;;;;10.07;100.00;100601.63;10456550;28;20044;-68
2023/12/29 01:56:44;;;;;;;1999.90;999.90;;;;;;;9.99;100.00;100599.47;10455794;28;20574;-67
2023/12/29 02:01:47;;;;;;;1999.90;999.90;;;;;;;9.97;100.00;100591.72;10456407;28;20106;-68
2023/12/29 02:06:49;;;;;;;1999.90;999.90;;;;;;;9.90;100.00;100602.59;10455929;28;20443;-67
2023/12/29 02:11:52;;;;;;;1999.90;999.90;;;;;;;9.80;100.00;100594.44;10456023;28;20484;-68
2023/12/29 02:17:13;;;;;;;1999.90;999.90;;;;;;;9.94;100.00;100593.66;10455395;28;20049;-68
2023/12/29 02:22:15;;;;;;;1999.90;999.90;;;;;;;9.84;100.00;100609.03;10471821;22;20045;-71
2023/12/29 02:27:27;;;;;;;1999.90;999.90;;;;;;;9.96;100.00;100617.94;10464603;28;20055;-71
2023/12/29 02:32:30;;;;;;;1999.90;999.90;;;;;;;9.73;100.00;100608.78;10463095;28;20047;-71
2023/12/29 02:37:33;;;;;;;1999.90;999.90;;;;;;;9.71;100.00;100608.88;10462790;28;20077;-71
2023/12/29 02:42:36;;;;;;;1999.90;999.90;;;;;;;9.64;100.00;100610.16;10462565;28;20127;-71
2023/12/29 02:47:38;;;;;;;1999.90;999.90;;;;;;;9.59;100.00;100593.91;10463673;28;20056;-71
2023/12/29 02:52:40;;;;;;;1999.90;999.90;;;;;;;9.75;100.00;100592.09;10463203;28;20547;-72
2023/12/29 02:57:43;;;;;;;1999.90;999.90;;;;;;;9.78;100.00;100586.66;10463117;28;20538;-71
2023/12/29 03:02:46;;;;;;;1999.90;999.90;;;;;;;9.57;100.00;100577.47;10445399;28;20053;-71
2023/12/29 03:07:48;;;;;;;1999.90;999.90;;;;;;;9.74;100.00;100569.50;10461935;28;20091;-71
2023/12/29 03:12:50;;;;;;;1999.90;999.90;;;;;;;9.89;100.00;100573.00;10462448;28;20048;-71
2023/12/29 03:17:53;;;;;;;1999.90;999.90;;;;;;;9.81;100.00;100581.28;10461428;28;20044;-71
2023/12/29 03:22:55;;;;;;;1999.90;999.90;;;;;;;9.89;100.00;100556.47;10460721;28;20542;-71
2023/12/29 03:27:58;;;;;;;1999.90;999.90;;;;;;;9.87;100.00;100548.72;10460820;28;20136;-71
2023/12/29 03:33:01;;;;;;;1999.90;999.90;;;;;;;9.97;100.00;100559.47;10461618;28;20106;-71
2023/12/29 03:38:06;;;;;;;1999.90;999.90;;;;;;;9.95;100.00;100556.97;10461569;28;20106;-71
2023/12/29 03:43:08;;;;;;;1999.90;999.90;;;;;;;10.09;100.00;100563.16;10460449;28;20053;-71
2023/12/29 03:48:11;;;;;;;1999.90;999.90;;;;;;;10.16;100.00;100548.78;10461320;28;20045;-72
2023/12/29 03:53:14;;;;;;;1999.90;999.90;;;;;;;10.09;100.00;100545.69;10460877;28;20045;-71
2023/12/29 03:58:17;;;;;;;1999.90;999.90;;;;;;;10.19;100.00;100552.03;10460738;28;20399;-71
2023/12/29 04:03:19;;;;;;;1999.90;999.90;;;;;;;10.23;100.00;100540.44;10460490;28;20451;-72
2023/12/29 04:08:22;;;;;;;1999.90;999.90;;;;;;;10.04;100.00;100545.94;10459179;28;20411;-72
2023/12/29 04:13:24;;;;;;;1999.90;999.90;;;;;;;10.11;100.00;100541.19;10460514;28;20089;-71
2023/12/29 04:18:28;;;;;;;1999.90;999.90;;;;;;;10.06;100.00;100537.19;10460343;28;20119;-72
2023/12/29 04:23:30;;;;;;;1999.90;999.90;;;;;;;10.22;100.00;100536.16;10459816;28;20053;-72
2023/12/29 04:28:33;;;;;;;1999.90;999.90;;;;;;;10.17;100.00;100532.97;10458985;28;20052;-71
2023/12/29 04:33:35;;;;;;;1999.90;999.90;;;;;;;10.31;100.00;100532.16;10459600;28;20049;-72
2023/12/29 04:38:39;;;;;;;1999.90;999.90;;;;;;;10.44;100.00;100537.53;10441782;28;20052;-72
2023/12/29 04:43:41;;;;;;;1999.90;999.90;;;;;;;10.01;100.00;100532.22;10458359;28;20498;-73
2023/12/29 04:48:44;;;;;;;1999.90;999.90;;;;;;;10.18;100.00;100550.34;10458895;28;20133;-72
2023/12/29 04:53:46;;;;;;;1999.90;999.90;;;;;;;10.21;100.00;100555.41;10458479;28;20435;-71
2023/12/29 04:58:50;;;;;;;1999.90;999.90;;;;;;;10.06;100.00;100550.25;10459050;28;20122;-71
2023/12/29 05:03:53;;;;;;;1999.90;999.90;;;;;;;10.25;99.61;100565.69;10458607;28;20123;-71
2023/12/29 05:08:55;;;;;;;1999.90;999.90;;;;;;;10.19;100.00;100574.75;10458132;28;20049;-72
2023/12/29 05:13:58;;;;;;;1999.90;999.90;;;;;;;10.34;97.69;100568.63;10456566;28;20124;-72
2023/12/29 05:19:00;;;;;;;1999.90;999.90;;;;;;;10.38;98.23;100559.66;10458030;28;20063;-72
2023/12/29 05:24:04;;;;;;;1999.90;999.90;;;;;;;10.30;99.20;100580.16;10456289;28;20106;-72
2023/12/29 05:29:06;;;;;;;1999.90;999.90;;;;;;;10.35;96.43;100577.31;10457333;28;20133;-72
2023/12/29 05:34:09;;;;;;;1999.90;999.90;;;;;;;10.45;95.77;100575.00;10457693;28;20053;-72
2023/12/29 05:39:11;;;;;;;1999.90;999.90;;;;;;;10.28;95.73;100573.38;10456979;28;20411;-72
2023/12/29 05:44:14;;;;;;;1999.90;999.90;;;;;;;10.19;97.74;100569.53;10457013;28;20053;-72
2023/12/29 05:49:16;;;;;;;1999.90;999.90;;;;;;;10.09;97.95;100577.06;10455563;28;20076;-72
2023/12/29 05:54:18;;;;;;;1999.90;999.90;;;;;;;10.20;96.15;100572.06;10456683;28;20140;-73
2023/12/29 05:59:21;;;;;;;1999.90;999.90;;;;;;;10.22;94.67;100572.78;10456907;28;20500;-72
2023/12/29 06:04:23;;;;;;;1999.90;999.90;;;;;;;10.14;97.41;100567.16;10455211;28;20049;-71
2023/12/29 06:09:26;;;;;;;1999.90;999.90;;;;;;;10.22;97.34;100587.63;10456276;28;20399;-72
2023/12/29 06:14:28;;;;;;;1999.90;999.90;;;;;;;10.04;100.00;100569.47;10454839;28;20049;-72
2023/12/29 06:19:32;;;;;;;1999.90;999.90;;;;;;;10.17;98.37;100569.63;10455080;28;20060;-71
2023/12/29 06:24:35;;;;;;;1999.90;999.90;;;;;;;10.22;97.98;100574.53;10456080;28;20048;-71
2023/12/29 06:29:37;;;;;;;1999.90;999.90;;;;;;;10.05;100.00;100572.94;10454821;28;20053;-72
2023/12/29 06:34:41;;;;;;;1999.90;999.90;;;;;;;10.11;100.00;100588.28;10455750;28;20480;-71
2023/12/29 06:39:43;;;;;;;1999.90;999.90;;;;;;;10.27;99.62;100563.81;10455761;28;20136;-71
2023/12/29 06:44:46;;;;;;;1999.90;999.90;;;;;;;10.09;100.00;100571.84;10455902;28;20047;-71
2023/12/29 06:49:49;;;;;;;1999.90;999.90;;;;;;;10.08;100.00;100566.69;10438007;28;20057;-71
2023/12/29 06:54:52;;;;;;;1999.90;999.90;;;;;;;9.89;100.00;100606.16;10454187;28;20455;-71
2023/12/29 06:59:54;;;;;;;1999.90;999.90;;;;;;;9.48;100.00;100610.16;10454313;28;20053;-71
2023/12/29 07:04:57;;;;;;;1999.90;999.90;;;;;;;9.57;100.00;100603.59;10454118;28;20053;-71
2023/12/29 07:09:59;;;;;;;1999.90;999.90;;;;;;;9.51;100.00;100596.94;10461439;28;20110;-70
2023/12/29 07:15:01;;;;;;;1999.90;999.90;;;;;;;9.62;100.00;100596.34;10461348;28;20049;-72
2023/12/29 07:20:06;;;;;;;1999.90;999.90;;;;;;;9.48;100.00;100611.03;10462284;28;20083;-71
2023/12/29 07:25:09;;;;;;;1999.90;999.90;;;;;;;9.47;100.00;100601.50;10462278;28;20545;-71
2023/12/29 07:30:12;;;;;;;1999.90;999.90;;;;;;;9.34;100.00;100582.19;10460918;28;20049;-72
2023/12/29 07:35:19;;;;;;;1999.90;999.90;;;;;;;9.27;100.00;100571.25;10460496;28;20393;-72
2023/12/29 07:40:22;;;;;;;1999.90;999.90;;;;;;;9.53;100.00;100562.88;10460404;28;20106;-72
2023/12/29 07:45:25;;;;;;;1999.90;999.90;;;;;;;9.45;100.00;100551.09;10461886;28;20045;-72
2023/12/29 07:50:27;;;;;;;1999.90;999.90;;;;;;;9.70;100.00;100554.06;10461089;28;20076;-72
2023/12/29 07:55:30;;;;;;;1999.90;999.90;;;;;;;9.62;100.00;100575.44;10461448;28;20057;-71
2023/12/29 08:00:33;;;;;;;1999.90;999.90;;;;;;;9.66;100.00;100566.47;10459783;28;20073;-72
2023/12/29 08:05:35;;;;;;;1999.90;999.90;;;;;;;9.52;100.00;100574.28;10460753;28;20056;-72
2023/12/29 08:10:38;;;;;;;1999.90;999.90;;;;;;;9.56;100.00;100573.16;10461001;28;20056;-72
2023/12/29 08:15:40;;;;;;;1999.90;999.90;;;;;;;9.73;100.00;100573.03;10460187;28;20056;-72
2023/12/29 08:20:42;;;;;;;1999.90;999.90;;;;;;;9.68;100.00;100556.75;10458886;28;20590;-72
2023/12/29 08:25:46;;;;;;;1999.90;999.90;;;;;;;9.64;100.00;100561.34;10460140;28;20060;-72
2023/12/29 08:30:48;;;;;;;1999.90;999.90;;;;;;;9.83;100.00;100561.13;10459601;28;20522;-71
2023/12/29 08:35:51;;;;;;;1999.90;999.90;;;;;;;9.77;100.00;100587.63;10460028;28;20071;-71
2023/12/29 08:40:53;;;;;;;1999.90;999.90;;;;;;;9.82;100.00;100577.75;10459114;28;20071;-71
2023/12/29 08:45:56;;;;;;;1999.90;999.90;;;;;;;10.03;100.00;100593.94;10458985;28;20430;-71
2023/12/29 08:50:58;;;;;;;1999.90;999.90;;;;;;;9.81;100.00;100594.34;10458758;28;20044;-71
2023/12/29 08:56:01;;;;;;;1999.90;999.90;;;;;;;9.94;100.00;100596.28;10457571;28;20052;-71
2023/12/29 09:01:03;;;;;;;1999.90;999.90;;;;;;;10.06;100.00;100592.09;10457173;28;20399;-71
2023/12/29 09:06:08;;;;;;;1999.90;999.90;;;;;;;10.11;100.00;100601.34;10440420;28;20051;-71
2023/12/29 09:11:11;;;;;;;1999.90;999.90;;;;;;;10.10;100.00;100591.81;10456890;28;20561;-71
2023/12/29 09:16:15;;;;;;;1999.90;999.90;;;;;;;10.01;100.00;100579.28;10457797;28;20087;-71
2023/12/29 09:21:18;;;;;;;1999.90;999.90;;;;;;;10.19;100.00;100593.06;10457726;28;20045;-71
2023/12/29 09:26:20;;;;;;;1999.90;999.90;;;;;;;10.17;100.00;100592.28;10457311;28;20063;-72
2023/12/29 09:31:23;;;;;;;1999.90;999.90;;;;;;;10.14;100.00;100593.34;10457128;28;20052;-71
2023/12/29 09:36:25;;;;;;;1999.90;999.90;;;;;;;10.39;100.00;100590.13;10456981;28;20053;-71
2023/12/29 09:41:31;;;;;;;1999.90;999.90;;;;;;;10.25;100.00;100608.38;10456853;28;20072;-71
2023/12/29 09:46:34;;;;;;;1999.90;999.90;;;;;;;10.42;100.00;100620.50;10455613;28;20569;-67
2023/12/29 09:51:37;;;;;;;1999.90;999.90;;;;;;;10.36;100.00;100641.81;10456726;28;20484;-71
2023/12/29 09:56:40;;;;;;;1999.90;999.90;;;;;;;10.26;100.00;100636.25;10455647;28;20052;-71
2023/12/29 10:01:45;;;;;;;1999.90;999.90;;;;;;;10.51;100.00;100622.59;10456409;28;20108;-72
2023/12/29 10:06:48;;;;;;;1999.90;999.90;;;;;;;10.35;100.00;100622.63;10456530;28;20048;-71
2023/12/29 10:11:52;;;;;;;1999.90;999.90;;;;;;;10.44;100.00;100626.50;10455214;28;20041;-71
2023/12/29 10:17:02;;;;;;;1999.90;999.90;;;;;;;10.33;100.00;100631.53;10438706;28;20499;-72
2023/12/29 10:22:26;;;;;;;1999.90;999.90;;;;;;;10.44;100.00;100623.91;10455003;28;20086;-71
2023/12/29 10:27:28;;;;;;;1999.90;999.90;;;;;;;10.18;100.00;100634.06;10456024;28;20045;-71
2023/12/29 10:32:31;;;;;;;1999.90;999.90;;;;;;;10.19;100.00;100646.22;10456021;28;20053;-72
2023/12/29 10:37:33;;;;;;;1999.90;999.90;;;;;;;10.47;100.00;100634.16;10455787;28;20132;-71
2023/12/29 10:42:35;;;;;;;1999.90;999.90;;;;;;;10.73;100.00;100643.06;10457849;28;20049;-71
2023/12/29 10:47:40;;;;;;;1999.90;999.90;;;;;;;10.49;100.00;100641.91;10462549;28;20057;-72
2023/12/29 10:52:42;;;;;;;1999.90;999.90;;;;;;;10.62;100.00;100634.19;10446450;28;20072;-72
2023/12/29 10:57:45;;;;;;;1999.90;999.90;;;;;;;10.55;100.00;100636.31;10462213;28;20059;-71
2023/12/29 11:02:54;;;;;;;1999.90;999.90;;;;;;;10.49;100.00;100632.31;10463067;28;20124;-71
2023/12/29 11:07:58;;;;;;;1999.90;999.90;;;;;;;10.72;100.00;100628.28;10463227;28;20057;-70
2023/12/29 11:13:01;;;;;;;1999.90;999.90;;;;;;;10.80;100.00;100635.69;10463062;28;20094;-70
2023/12/29 11:18:05;;;;;;;1999.90;999.90;;;;;;;10.96;100.00;100631.19;10461529;28;20056;-70
2023/12/29 11:23:07;;;;;;;1999.90;999.90;;;;;;;10.91;100.00;100632.41;10461105;28;20045;-70
2023/12/29 11:28:14;;;;;;;1999.90;999.90;;;;;;;11.36;100.00;100627.84;10460919;28;20056;-71
2023/12/29 11:33:30;;;;;;;1999.90;999.90;;;;;;;11.12;100.00;100631.06;10460783;28;20045;-71
2023/12/29 11:38:51;;;;;;;1999.90;999.90;;;;;;;11.27;100.00;100628.44;10460885;28;20067;-70
2023/12/29 11:44:01;;;;;;;1999.90;999.90;;;;;;;11.18;100.00;100637.75;10461555;28;20136;-70
2023/12/29 11:49:04;;;;;;;1999.90;999.90;;;;;;;11.12;99.77;100623.22;10460671;28;20124;-70
2023/12/29 11:54:08;;;;;;;1999.90;999.90;;;;;;;11.00;100.00;100626.59;10459842;28;20075;-70
2023/12/29 11:59:14;;;;;;;1999.90;999.90;;;;;;;11.09;100.00;100618.16;10460899;28;20053;-70
2023/12/29 12:04:41;;;;;;;1999.90;999.90;;;;;;;10.92;100.00;100629.69;10443247;28;20072;-70
2023/12/29 12:09:49;;;;;;;1999.90;999.90;;;;;;;11.17;100.00;100619.50;10460818;28;20084;-70
2023/12/29 12:14:53;;;;;;;1999.90;999.90;;;;;;;11.08;100.00;100613.03;10460469;28;20041;-70
2023/12/29 12:20:08;;;;;;;1999.90;999.90;;;;;;;11.05;100.00;100613.22;10460049;28;20071;-71
2023/12/29 12:25:12;;;;;;;1999.90;999.90;;;;;;;11.27;100.00;100603.06;10459128;28;20053;-71
2023/12/29 12:30:19;;;;;;;1999.90;999.90;;;;;;;11.21;98.06;100592.13;10458557;28;20044;-71
2023/12/29 12:35:21;;;;;;;1999.90;999.90;;;;;;;11.17;100.00;100593.28;10459670;28;20056;-71
2023/12/29 12:40:27;;;;;;;1999.90;999.90;;;;;;;11.31;99.21;100586.22;10459253;28;20556;-71
2023/12/29 12:45:33;;;;;;;1999.90;999.90;;;;;;;11.28;99.22;100575.06;10457912;28;20488;-71
2023/12/29 12:50:35;;;;;;;1999.90;999.90;;;;;;;11.27;98.57;100574.25;10458935;28;20076;-72
2023/12/29 12:55:38;;;;;;;1999.90;999.90;;;;;;;11.67;98.55;100574.28;10458481;28;20053;-71
2023/12/29 13:00:41;;;;;;;1999.90;999.90;;;;;;;11.77;96.27;100577.16;10458947;28;20135;-71
2023/12/29 13:05:44;;;;;;;1999.90;999.90;;;;;;;11.50;95.43;100571.94;10457592;28;20422;-71
2023/12/29 13:10:47;;;;;;;1999.90;999.90;;;;;;;11.34;96.95;100572.91;10456970;28;20048;-71
2023/12/29 13:15:50;;;;;;;1999.90;999.90;;;;;;;11.34;96.82;100566.84;10457688;28;20045;-71
2023/12/29 13:20:52;;;;;;;1999.90;999.90;;;;;;;11.34;97.62;100572.06;10456457;28;20485;-72
2023/12/29 13:26:06;;;;;;;1999.90;999.90;;;;;;;11.20;98.49;100557.25;10457404;28;20051;-68
2023/12/29 13:31:13;;;;;;;1999.90;999.90;;;;;;;11.31;100.00;100562.63;10456635;28;20059;-67
2023/12/29 13:36:26;;;;;;;1999.90;999.90;;;;;;;11.19;100.00;100555.53;10456602;28;20407;-70
2023/12/29 13:41:31;;;;;;;1999.90;999.90;;;;;;;11.17;100.00;100567.09;10457269;28;20048;-70
2023/12/29 13:46:34;;;;;;;1999.90;999.90;;;;;;;10.96;100.00;100562.22;10455918;28;20057;-70
2023/12/29 13:51:37;;;;;;;1999.90;999.90;;;;;;;11.07;100.00;100564.19;10455402;28;20442;-70
2023/12/29 13:56:39;;;;;;;1999.90;999.90;;;;;;;10.56;100.00;100560.31;10456798;28;20057;-69
2023/12/29 14:01:42;;;;;;;1999.90;999.90;;;;;;;10.42;100.00;100555.06;10455293;28;20045;-69
2023/12/29 14:06:59;;;;;;;1999.90;999.90;;;;;;;10.09;100.00;100545.69;10456625;28;20045;-70
2023/12/29 14:12:01;;;;;;;1999.90;999.90;;;;;;;10.09;100.00;100532.59;10454994;28;20404;-68
2023/12/29 14:17:04;;;;;;;1999.90;999.90;;;;;;;10.25;100.00;100544.75;10457851;28;20055;-68
2023/12/29 14:22:06;;;;;;;1999.90;999.90;;;;;;;10.17;100.00;100551.31;10463345;28;20049;-68
2023/12/29 14:27:12;;;;;;;1999.90;999.90;;;;;;;10.20;100.00;100569.44;10464370;28;20463;-65
2023/12/29 14:32:15;;;;;;;1999.90;999.90;;;;;;;10.32;100.00;100567.91;10464166;28;20483;-65
2023/12/29 14:37:17;;;;;;;1999.90;999.90;;;;;;;10.32;100.00;100578.34;10470654;22;20155;-65
2023/12/29 14:42:20;;;;;;;1999.90;999.90;;;;;;;10.32;100.00;100580.13;10462946;28;20125;-65
2023/12/29 14:47:22;;;;;;;1999.90;999.90;;;;;;;10.19;100.00;100566.91;10462627;28;20139;-65
2023/12/29 14:52:24;;;;;;;1999.90;999.90;;;;;;;10.12;100.00;100545.50;10463475;28;20133;-65
2023/12/29 14:57:27;;;;;;;1999.90;999.90;;;;;;;10.28;100.00;100549.81;10462185;28;20045;-65
2023/12/29 15:02:29;;;;;;;1999.90;999.90;;;;;;;10.43;100.00;100559.38;10463048;28;20067;-65
2023/12/29 15:07:31;;;;;;;1999.90;999.90;;;;;;;10.24;100.00;100546.53;10463134;28;20129;-65
2023/12/29 15:12:34;;;;;;;1999.90;999.90;;;;;;;10.13;100.00;100549.78;10462561;28;20049;-65
2023/12/29 15:17:39;;;;;;;1999.90;999.90;;;;;;;10.22;100.00;100535.31;10462780;28;20057;-69
2023/12/29 15:22:43;;;;;;;1999.90;999.90;;;;;;;10.20;100.00;100534.56;10461410;28;20048;-70
2023/12/29 15:27:45;;;;;;;1999.90;999.90;;;;;;;10.15;100.00;100526.16;10446127;28;20049;-70
2023/12/29 15:32:48;;;;;;;1999.90;999.90;;;;;;;10.35;100.00;100524.97;10461999;28;20041;-70
2023/12/29 15:37:50;;;;;;;1999.90;999.90;;;;;;;10.28;100.00;100521.03;10424969;28;20132;-69
2023/12/29 15:42:52;;;;;;;1999.90;999.90;;;;;;;10.15;100.00;100508.66;10423633;28;20044;-70
2023/12/29 15:47:55;;;;;;;1999.90;999.90;;;;;;;9.88;100.00;100516.38;10435192;28;20484;-69
2023/12/29 15:52:57;;;;;;;1999.90;999.90;;;;;;;9.90;100.00;100521.53;10450680;28;20052;-69
2023/12/29 15:58:00;;;;;;;1999.90;999.90;;;;;;;9.82;100.00;100514.16;10459408;28;20044;-69
2023/12/29 16:03:03;;;;;;;1999.90;999.90;;;;;;;9.71;100.00;100506.91;10459913;28;20488;-69
2023/12/29 16:08:06;;;;;;;1999.90;999.90;;;;;;;9.75;100.00;100499.75;10443382;28;20128;-69
2023/12/29 16:13:08;;;;;;;1999.90;999.90;;;;;;;9.79;100.00;100511.72;10458983;28;20459;-69
2023/12/29 16:18:14;;;;;;;1999.90;999.90;;;;;;;9.66;100.00;100498.50;10459076;28;20083;-69
2023/12/29 16:23:16;;;;;;;1999.90;999.90;;;;;;;9.72;100.00;100484.25;10459968;28;20488;-69
2023/12/29 16:28:19;;;;;;;1999.90;999.90;;;;;;;9.90;100.00;100487.53;10459922;28;20114;-69
2023/12/29 16:33:21;;;;;;;1999.90;999.90;;;;;;;9.84;100.00;100473.06;10459610;28;20539;-69
2023/12/29 16:38:25;;;;;;;1999.90;999.90;;;;;;;9.86;100.00;100474.63;10458032;28;20506;-69
2023/12/29 16:43:28;;;;;;;1999.90;999.90;;;;;;;9.84;100.00;100473.91;10457540;28;20132;-68
2023/12/29 16:48:30;;;;;;;1999.90;999.90;;;;;;;9.78;100.00;100473.41;10458910;28;20407;-69
2023/12/29 16:53:34;;;;;;;1999.90;999.90;;;;;;;9.83;100.00;100467.00;10457878;28;20056;-69
2023/12/29 16:58:40;;;;;;;1999.90;999.90;;;;;;;9.76;100.00;100460.44;10441157;28;20045;-69
2023/12/29 17:03:42;;;;;;;1999.90;999.90;;;;;;;9.85;100.00;100456.41;10457949;28;20041;-69
2023/12/29 17:08:44;;;;;;;1999.90;999.90;;;;;;;9.82;100.00;100440.94;10458190;28;20056;-69
2023/12/29 17:13:47;;;;;;;1999.90;999.90;;;;;;;9.62;100.00;100429.06;10456801;28;20472;-68
2023/12/29 17:18:50;;;;;;;1999.90;999.90;;;;;;;9.87;100.00;100423.19;10458477;28;20434;-69
2023/12/29 17:23:52;;;;;;;1999.90;999.90;;;;;;;9.94;100.00;100419.28;10457687;28;20053;-68
2023/12/29 17:28:55;;;;;;;1999.90;999.90;;;;;;;9.84;100.00;100424.22;10457728;28;20509;-69
2023/12/29 17:33:57;;;;;;;1999.90;999.90;;;;;;;9.97;100.00;100416.47;10456171;28;20389;-68
2023/12/29 17:39:01;;;;;;;1999.90;999.90;;;;;;;9.96;100.00;100440.94;10457131;28;20049;-68
2023/12/29 17:44:03;;;;;;;1999.90;999.90;;;;;;;9.99;100.00;100463.47;10457228;28;20077;-68
2023/12/29 17:49:05;;;;;;;1999.90;999.90;;;;;;;9.76;100.00;100467.44;10455639;28;20049;-70
2023/12/29 17:54:10;;;;;;;1999.90;999.90;;;;;;;9.73;100.00;100471.06;10456973;28;20131;-69
2023/12/29 17:59:13;;;;;;;1999.90;999.90;;;;;;;9.83;100.00;100479.22;10456818;28;20067;-69
2023/12/29 18:04:16;;;;;;;1999.90;999.90;;;;;;;9.94;100.00;100496.91;10456720;28;20049;-69
2023/12/29 18:09:18;;;;;;;1999.90;999.90;;;;;;;9.97;100.00;100504.53;10457070;28;20128;-69
2023/12/29 18:14:20;;;;;;;1999.90;999.90;;;;;;;9.90;100.00;100513.69;10455035;28;20047;-69
2023/12/29 18:19:23;;;;;;;1999.90;999.90;;;;;;;9.91;100.00;100518.00;10456489;28;20081;-69
2023/12/29 18:24:26;;;;;;;1999.90;999.90;;;;;;;9.86;100.00;100536.56;10456203;28;20118;-69
2023/12/29 18:29:28;;;;;;;1999.90;999.90;;;;;;;9.94;100.00;100538.75;10456270;28;20049;-69
2023/12/29 18:34:30;;;;;;;1999.90;999.90;;;;;;;10.06;100.00;100539.78;10454834;28;20049;-69
2023/12/29 18:39:34;;;;;;;1999.90;999.90;;;;;;;9.86;100.00;100555.69;10455662;28;20087;-69
2023/12/29 18:44:38;;;;;;;1999.90;999.90;;;;;;;9.83;100.00;100565.50;10454575;28;20049;-69
2023/12/29 18:49:40;;;;;;;1999.90;999.90;;;;;;;9.96;100.00;100581.34;10454395;28;20547;-69
2023/12/29 18:54:44;;;;;;;1999.90;999.90;;;;;;;9.86;100.00;100596.72;10455663;28;20052;-70
2023/12/29 18:59:47;;;;;;;1999.90;999.90;;;;;;;9.78;100.00;100593.69;10455390;28;20099;-69
2023/12/29 19:04:50;;;;;;;1999.90;999.90;;;;;;;9.85;100.00;100598.50;10458509;28;20056;-69
2023/12/29 19:09:52;;;;;;;1999.90;999.90;;;;;;;9.63;100.00;100601.50;10463566;28;20443;-69
2023/12/29 19:14:55;;;;;;;1999.90;999.90;;;;;;;9.48;100.00;100599.72;10462727;28;20095;-70
2023/12/29 19:19:57;;;;;;;1999.90;999.90;;;;;;;9.58;100.00;100608.75;10461627;28;20049;-69
2023/12/29 19:25:00;;;;;;;1999.90;999.90;;;;;;;9.54;100.00;100596.75;10462404;28;20412;-69
2023/12/29 19:30:03;;;;;;;1999.90;999.90;;;;;;;9.48;100.00;100607.56;10462895;28;20103;-69
2023/12/29 19:35:05;;;;;;;1999.90;999.90;;;;;;;9.38;100.00;100633.38;10461082;28;20071;-69
2023/12/29 19:40:09;;;;;;;1999.90;999.90;;;;;;;9.54;100.00;100637.75;10461880;28;20048;-69
2023/12/29 19:45:11;;;;;;;1999.90;999.90;;;;;;;9.46;100.00;100636.41;10460331;28;20451;-70
2023/12/29 19:50:16;;;;;;;1999.90;999.90;;;;;;;9.36;100.00;100642.22;10460158;28;20136;-69
2023/12/29 19:55:18;;;;;;;1999.90;999.90;;;;;;;9.19;100.00;100650.97;10461270;28;20045;-69
2023/12/29 20:00:21;;;;;;;1999.90;999.90;;;;;;;9.21;100.00;100638.66;10460949;28;20515;-69
2023/12/29 20:05:24;;;;;;;1999.90;999.90;;;;;;;9.20;100.00;100644.81;10461546;28;20049;-69
2023/12/29 20:10:27;;;;;;;1999.90;999.90;;;;;;;9.25;100.00;100648.88;10460604;28;20079;-69
2023/12/29 20:15:30;;;;;;;1999.90;999.90;;;;;;;9.27;100.00;100641.78;10460252;28;20103;-69
2023/12/29 20:20:32;;;;;;;1999.90;999.90;;;;;;;9.30;100.00;100644.22;10442865;28;20053;-69
2023/12/29 20:25:35;;;;;;;1999.90;999.90;;;;;;;9.36;100.00;100642.22;10460115;28;20063;-69
2023/12/29 20:30:38;;;;;;;1999.90;999.90;;;;;;;9.31;100.00;100626.78;10459585;28;20048;-69
2023/12/29 20:35:40;;;;;;;1999.90;999.90;;;;;;;9.22;100.00;100629.91;10459606;28;20041;-69
2023/12/29 20:40:42;;;;;;;1999.90;999.90;;;;;;;9.28;100.00;100612.13;10458052;28;20433;-69
2023/12/29 20:45:45;;;;;;;1999.90;999.90;;;;;;;9.49;100.00;100617.09;10458232;28;20142;-69
2023/12/29 20:50:47;;;;;;;1999.90;999.90;;;;;;;9.46;100.00;100630.31;10459042;28;20052;-69
2023/12/29 20:55:51;;;;;;;1999.90;999.90;;;;;;;9.28;100.00;100630.41;10459042;28;20045;-69
2023/12/29 21:00:54;;;;;;;1999.90;999.90;;;;;;;9.34;100.00;100617.94;10457576;28;20053;-69
2023/12/29 21:05:56;;;;;;;1999.90;999.90;;;;;;;9.38;100.00;100609.00;10458369;28;20499;-69
2023/12/29 21:10:59;;;;;;;1999.90;999.90;;;;;;;9.13;100.00;100648.69;10457208;28;20102;-69
2023/12/29 21:16:01;;;;;;;1999.90;999.90;;;;;;;9.18;100.00;100657.09;10457908;28;20404;-69
2023/12/29 21:21:04;;;;;;;1999.90;999.90;;;;;;;9.44;100.00;100664.38;10458024;28;20053;-69
2023/12/29 21:26:07;;;;;;;1999.90;999.90;;;;;;;9.31;100.00;100671.19;10457190;28;20059;-69
2023/12/29 21:31:19;;;;;;;1999.90;999.90;;;;;;;9.36;100.00;100668.34;10457467;28;20412;-69
2023/12/29 21:36:23;;;;;;;1999.90;999.90;;;;;;;9.39;100.00;100655.13;10456374;28;20049;-69
2023/12/29 21:41:30;;;;;;;1999.90;999.90;;;;;;;9.31;100.00;100658.13;10456071;28;20137;-69
2023/12/29 21:46:33;;;;;;;1999.90;999.90;;;;;;;9.20;100.00;100661.34;10457032;28;20057;-69
2023/12/29 21:51:35;;;;;;;1999.90;999.90;;;;;;;9.19;100.00;100664.03;10456851;28;20053;-69